Pagrindinis puslapis
METAR-TAF:

METAR-TAF

Oro uostai :

Charbinas, Kinija

platuma: 45-45N, ilguma: 126-46E, Aukštis: 143 m

Dabartinis oras

Ataskaita buvo paskelbta 15 minutes, ne 08:00 UTC
Vėjas 10 kt iš Vakarų, svyruoja nuo Vakarų/Pietvakarių ir Šiaurės Vakarų
Temperatūra 31°C
Drėgmė 46%
Slėgis 998 hPa
Matomumas 10 km arba daugiau
nėra debesų žemiau 1500 m ir nėra kamuolinių lietaus debesų

METAR: ZYHB 190800Z 28005MPS 250V310 CAVOK 31/18 Q0998 NOSIG

Laikas: 16:15 (08:15 UTC)

Prognozė

Ataskaita buvo paskelbta 5 valandos ir 12 minutes, ne 03:03 UTC
Prognozė galioja nuo 19 metu 06 UTC su 20 metu 06 UTC
Vėjas 12 kt iš Pietų/Pietvakarių
Matomumas: 6000 m
Mažai debesys ne aukštis 3300 ft
Laikinai
nuo 19 metu 08 UTC su 19 metu 11 UTC
Vėjas 23 kt nuo kintamojo kryptimis su gūsio iki 39 kt
Matomumas: 1600 m
Išsisklaidę debesys ne aukštis 2300 ft, Liūtiniai kamuoliniai debesys.
Su prošvaistėmis ne aukštis 3000 ft
perkūnija, lietus,

TAF: ZYHB 190303Z 1906/2006 21006MPS 6000 FEW033 TX32/1906Z TN19/1921Z TEMPO 1908/1911 VRB12G20MPS 1600 TSRA SCT023CB BKN030

Orai ataskaitas ir orų prognozės (METAR, TAF).

turimą stotys yra geltonos ir raudonos taškus žemėlapyje.

Perkelti pele per norėdami pamatyti stoties vardą.

Tada spustelėkite, norėdami matyti oro stebėjimo ir prognozės.

Norėdami pakeisti žemėlapį: spustelėkite ant žalios mygtukų su juodo kryžiaus žemyn,; žalią mygtuką su brūkšneliu, jei norite nutolinti; arba žalių rodyklių gretimoms žemėlapius.


METAR-TAF: